Aérodrome :
LOGIN :

S'inscrire | Disclaimer

   EN    FR    IT 

 










Légende :    VFR   VFR Marginal   IFR   IFR Intensif   IFR Très Intensif
Visi : 
Plafond : 
>= 8 km
>= 3000ft
5 à 8 km
1000 à 3000 ft
1500m à 5 km
500 à 1000 ft
800 à 1500m
200 à 500 ft
< 800m
< 200 ft
Symboles :   Orages  Brouillard  Fortes neiges  Fortes précipitations  Vent > 20 kt
SIGMETs :   Divers  Orages  Givrage  Turbulence  Onde Orograph.  Cendres Volcan.







- Altitude de l'aérodrome : 821 ft
- Code IATA : LYS
- Voir les cartes d'approche


LFLL - Lyon St Exupéry / Satolas

DERNIER METAR :
  • 301030Z VRB03KT CAVOK 18/08 Q1025 NOSIG

METARs EXPIRÉS :
  • 301000Z VRB03KT CAVOK 17/07 Q1025 NOSIG
  • 300930Z 00000KT CAVOK 15/07 Q1026 NOSIG
  • 300900Z 00000KT CAVOK 14/07 Q1026 NOSIG
  • 300830Z VRB02KT CAVOK 13/06 Q1026 NOSIG
  • 300800Z 19003KT CAVOK 12/06 Q1026 NOSIG

TAF TAF LFLL
Valide du 30 à 06h jusqu'au 31 à 12h UTC


300500Z 3006/3112 VRB02KT CAVOK
BECMG 3011/3013 16012KT
BECMG 3109/3111 18015G27KT
Pas de NOTAMs connus pour ce terrain.



MET'MAP, la Météo Aéronautique d'un coup d'oeil ! - Copyright ORBIFLY Décembre 2007 - Disclaimer

ORBIFLY MET'MAP TEAM :

Programmation & Développement : Alexandra Zaïnal
Conception & Développement : Baudouin d'Aumeries
Co-Programmation & Développement : Marc-Olivier Méhu
Soutien technique & logistique : Manuel Goepfert

Contact : metmap@orbifly.com




SOURCES & CREDITS :

   NOAA